sensor_id;sensor_type;location;lat;lon;timestamp;temperature;humidity
14093;DHT22;7123;49.468;10.992;2023-11-21T00:01:23;9.10;99.90
14093;DHT22;7123;49.468;10.992;2023-11-21T00:03:50;9.10;99.90
14093;DHT22;7123;49.468;10.992;2023-11-21T00:06:16;9.20;99.90
14093;DHT22;7123;49.468;10.992;2023-11-21T00:08:44;9.30;99.90
14093;DHT22;7123;49.468;10.992;2023-11-21T00:11:11;9.30;99.90
14093;DHT22;7123;49.468;10.992;2023-11-21T00:13:38;9.30;99.90
14093;DHT22;7123;49.468;10.992;2023-11-21T00:16:06;9.40;99.90
14093;DHT22;7123;49.468;10.992;2023-11-21T00:18:34;9.40;99.90
14093;DHT22;7123;49.468;10.992;2023-11-21T00:21:00;9.50;99.90
14093;DHT22;7123;49.468;10.992;2023-11-21T00:23:27;9.60;99.90
14093;DHT22;7123;49.468;10.992;2023-11-21T00:25:54;9.60;99.90
14093;DHT22;7123;49.468;10.992;2023-11-21T00:28:21;9.70;99.90
14093;DHT22;7123;49.468;10.992;2023-11-21T00:30:49;9.70;99.90
14093;DHT22;7123;49.468;10.992;2023-11-21T00:33:15;9.80;99.90
14093;DHT22;7123;49.468;10.992;2023-11-21T00:35:43;9.80;99.90
14093;DHT22;7123;49.468;10.992;2023-11-21T00:38:09;9.80;99.90
14093;DHT22;7123;49.468;10.992;2023-11-21T00:40:36;9.90;99.90
14093;DHT22;7123;49.468;10.992;2023-11-21T00:43:04;9.90;99.90
14093;DHT22;7123;49.468;10.992;2023-11-21T00:45:32;9.90;99.90
14093;DHT22;7123;49.468;10.992;2023-11-21T00:47:59;9.90;99.90
14093;DHT22;7123;49.468;10.992;2023-11-21T00:50:25;9.90;99.90
14093;DHT22;7123;49.468;10.992;2023-11-21T00:52:52;9.90;99.90
14093;DHT22;7123;49.468;10.992;2023-11-21T00:55:19;9.90;99.90
14093;DHT22;7123;49.468;10.992;2023-11-21T00:57:46;9.90;99.90
14093;DHT22;7123;49.468;10.992;2023-11-21T01:00:13;10.00;99.90
14093;DHT22;7123;49.468;10.992;2023-11-21T01:02:44;9.90;99.90
14093;DHT22;7123;49.468;10.992;2023-11-21T01:05:14;9.90;99.90
14093;DHT22;7123;49.468;10.992;2023-11-21T01:07:41;9.90;99.90
14093;DHT22;7123;49.468;10.992;2023-11-21T01:10:08;9.90;99.90
14093;DHT22;7123;49.468;10.992;2023-11-21T01:12:37;9.90;99.90
14093;DHT22;7123;49.468;10.992;2023-11-21T01:15:05;10.00;99.90
14093;DHT22;7123;49.468;10.992;2023-11-21T01:17:35;10.00;99.90
14093;DHT22;7123;49.468;10.992;2023-11-21T01:20:02;9.90;99.90
14093;DHT22;7123;49.468;10.992;2023-11-21T01:22:33;9.90;99.90
14093;DHT22;7123;49.468;10.992;2023-11-21T01:24:59;9.80;99.90
14093;DHT22;7123;49.468;10.992;2023-11-21T01:27:26;9.70;99.90
14093;DHT22;7123;49.468;10.992;2023-11-21T01:29:53;9.70;99.90
14093;DHT22;7123;49.468;10.992;2023-11-21T01:32:20;9.60;99.90
14093;DHT22;7123;49.468;10.992;2023-11-21T01:34:48;9.60;99.90
14093;DHT22;7123;49.468;10.992;2023-11-21T01:37:15;9.50;99.90
14093;DHT22;7123;49.468;10.992;2023-11-21T01:39:44;9.50;99.90
14093;DHT22;7123;49.468;10.992;2023-11-21T01:42:11;9.50;99.90
14093;DHT22;7123;49.468;10.992;2023-11-21T01:44:39;9.50;99.90
14093;DHT22;7123;49.468;10.992;2023-11-21T01:47:06;9.50;99.90
14093;DHT22;7123;49.468;10.992;2023-11-21T01:49:34;9.40;99.90
14093;DHT22;7123;49.468;10.992;2023-11-21T01:52:02;9.40;99.90
14093;DHT22;7123;49.468;10.992;2023-11-21T01:54:30;9.40;99.90
14093;DHT22;7123;49.468;10.992;2023-11-21T01:56:58;9.40;99.90
14093;DHT22;7123;49.468;10.992;2023-11-21T01:59:34;9.50;99.90
14093;DHT22;7123;49.468;10.992;2023-11-21T02:02:01;9.60;99.90
14093;DHT22;7123;49.468;10.992;2023-11-21T02:04:28;9.50;99.90
14093;DHT22;7123;49.468;10.992;2023-11-21T02:06:55;9.60;99.90
14093;DHT22;7123;49.468;10.992;2023-11-21T02:09:28;9.60;99.90
14093;DHT22;7123;49.468;10.992;2023-11-21T02:12:00;9.60;99.90
14093;DHT22;7123;49.468;10.992;2023-11-21T02:14:27;9.60;99.90
14093;DHT22;7123;49.468;10.992;2023-11-21T02:16:55;9.70;99.90
14093;DHT22;7123;49.468;10.992;2023-11-21T02:19:23;9.70;99.90
14093;DHT22;7123;49.468;10.992;2023-11-21T02:21:53;9.70;99.90
14093;DHT22;7123;49.468;10.992;2023-11-21T02:24:20;9.70;99.90
14093;DHT22;7123;49.468;10.992;2023-11-21T02:26:50;9.70;99.90
14093;DHT22;7123;49.468;10.992;2023-11-21T02:29:18;9.70;99.90
14093;DHT22;7123;49.468;10.992;2023-11-21T02:31:52;9.70;99.90
14093;DHT22;7123;49.468;10.992;2023-11-21T02:34:22;9.70;99.90
14093;DHT22;7123;49.468;10.992;2023-11-21T02:36:49;9.80;99.90
14093;DHT22;7123;49.468;10.992;2023-11-21T02:39:16;9.70;99.90
14093;DHT22;7123;49.468;10.992;2023-11-21T02:41:44;9.80;99.90
14093;DHT22;7123;49.468;10.992;2023-11-21T02:44:11;9.80;99.90
14093;DHT22;7123;49.468;10.992;2023-11-21T02:46:37;9.80;99.90
14093;DHT22;7123;49.468;10.992;2023-11-21T02:49:06;9.80;99.90
14093;DHT22;7123;49.468;10.992;2023-11-21T02:51:33;9.80;99.90
14093;DHT22;7123;49.468;10.992;2023-11-21T02:54:00;9.80;99.90
14093;DHT22;7123;49.468;10.992;2023-11-21T02:56:29;9.80;99.90
14093;DHT22;7123;49.468;10.992;2023-11-21T02:58:56;9.80;99.90
14093;DHT22;7123;49.468;10.992;2023-11-21T03:01:23;9.90;99.90
14093;DHT22;7123;49.468;10.992;2023-11-21T03:03:53;9.90;99.90
14093;DHT22;7123;49.468;10.992;2023-11-21T03:06:21;9.90;99.90
14093;DHT22;7123;49.468;10.992;2023-11-21T03:08:49;9.90;99.90
14093;DHT22;7123;49.468;10.992;2023-11-21T03:11:15;9.90;99.90
14093;DHT22;7123;49.468;10.992;2023-11-21T03:13:42;9.90;99.90
14093;DHT22;7123;49.468;10.992;2023-11-21T03:16:09;9.90;99.90
14093;DHT22;7123;49.468;10.992;2023-11-21T03:18:38;9.90;99.90
14093;DHT22;7123;49.468;10.992;2023-11-21T03:21:05;9.90;99.90
14093;DHT22;7123;49.468;10.992;2023-11-21T03:23:34;9.90;99.90
14093;DHT22;7123;49.468;10.992;2023-11-21T03:26:02;9.90;99.90
14093;DHT22;7123;49.468;10.992;2023-11-21T03:28:28;9.90;99.90
14093;DHT22;7123;49.468;10.992;2023-11-21T03:30:56;9.90;99.90
14093;DHT22;7123;49.468;10.992;2023-11-21T03:33:23;10.00;99.90
14093;DHT22;7123;49.468;10.992;2023-11-21T03:35:50;10.00;99.90
14093;DHT22;7123;49.468;10.992;2023-11-21T03:38:17;9.90;99.90
14093;DHT22;7123;49.468;10.992;2023-11-21T03:40:43;9.90;99.90
14093;DHT22;7123;49.468;10.992;2023-11-21T03:43:10;10.00;99.90
14093;DHT22;7123;49.468;10.992;2023-11-21T03:45:37;9.90;99.90
14093;DHT22;7123;49.468;10.992;2023-11-21T03:48:04;10.00;99.90
14093;DHT22;7123;49.468;10.992;2023-11-21T03:50:31;9.90;99.90
14093;DHT22;7123;49.468;10.992;2023-11-21T03:52:58;9.90;99.90
14093;DHT22;7123;49.468;10.992;2023-11-21T03:55:25;9.90;99.90
14093;DHT22;7123;49.468;10.992;2023-11-21T03:57:52;9.90;99.90
14093;DHT22;7123;49.468;10.992;2023-11-21T04:00:19;9.90;99.90
14093;DHT22;7123;49.468;10.992;2023-11-21T04:02:48;9.90;99.90
14093;DHT22;7123;49.468;10.992;2023-11-21T04:05:17;9.90;99.90
14093;DHT22;7123;49.468;10.992;2023-11-21T04:07:44;9.90;99.90
14093;DHT22;7123;49.468;10.992;2023-11-21T04:10:11;9.80;99.90
14093;DHT22;7123;49.468;10.992;2023-11-21T04:12:39;9.80;99.90
14093;DHT22;7123;49.468;10.992;2023-11-21T04:15:07;9.70;99.90
14093;DHT22;7123;49.468;10.992;2023-11-21T04:17:35;9.70;99.90
14093;DHT22;7123;49.468;10.992;2023-11-21T04:20:04;9.70;99.90
14093;DHT22;7123;49.468;10.992;2023-11-21T04:22:37;9.60;99.90
14093;DHT22;7123;49.468;10.992;2023-11-21T04:25:11;9.70;99.90
14093;DHT22;7123;49.468;10.992;2023-11-21T04:27:42;9.50;99.90
14093;DHT22;7123;49.468;10.992;2023-11-21T04:30:13;9.50;99.90
14093;DHT22;7123;49.468;10.992;2023-11-21T04:32:40;9.40;99.90
14093;DHT22;7123;49.468;10.992;2023-11-21T04:35:08;9.40;99.90
14093;DHT22;7123;49.468;10.992;2023-11-21T04:37:35;9.30;99.90
14093;DHT22;7123;49.468;10.992;2023-11-21T04:40:03;9.30;99.90
14093;DHT22;7123;49.468;10.992;2023-11-21T04:42:34;9.20;99.90
14093;DHT22;7123;49.468;10.992;2023-11-21T04:45:06;9.20;99.90
14093;DHT22;7123;49.468;10.992;2023-11-21T04:47:36;9.20;99.90
14093;DHT22;7123;49.468;10.992;2023-11-21T04:50:04;9.20;99.90
14093;DHT22;7123;49.468;10.992;2023-11-21T04:52:32;9.20;99.90
14093;DHT22;7123;49.468;10.992;2023-11-21T04:54:59;9.30;99.90
14093;DHT22;7123;49.468;10.992;2023-11-21T04:57:28;9.20;99.90
14093;DHT22;7123;49.468;10.992;2023-11-21T04:59:55;9.20;99.90
14093;DHT22;7123;49.468;10.992;2023-11-21T05:02:22;9.30;99.90
14093;DHT22;7123;49.468;10.992;2023-11-21T05:05:01;9.30;99.90
14093;DHT22;7123;49.468;10.992;2023-11-21T05:07:29;9.30;99.90
14093;DHT22;7123;49.468;10.992;2023-11-21T05:09:58;9.20;99.90
14093;DHT22;7123;49.468;10.992;2023-11-21T05:12:25;9.30;99.90
14093;DHT22;7123;49.468;10.992;2023-11-21T05:14:52;9.40;99.90
14093;DHT22;7123;49.468;10.992;2023-11-21T05:17:18;9.40;99.90
14093;DHT22;7123;49.468;10.992;2023-11-21T05:19:45;9.50;99.90
14093;DHT22;7123;49.468;10.992;2023-11-21T05:22:16;9.50;99.90
14093;DHT22;7123;49.468;10.992;2023-11-21T05:24:42;9.50;99.90
14093;DHT22;7123;49.468;10.992;2023-11-21T05:27:09;9.60;99.90
14093;DHT22;7123;49.468;10.992;2023-11-21T05:29:36;9.60;99.90
14093;DHT22;7123;49.468;10.992;2023-11-21T05:32:04;9.60;99.90
14093;DHT22;7123;49.468;10.992;2023-11-21T05:34:31;9.60;99.90
14093;DHT22;7123;49.468;10.992;2023-11-21T05:36:58;9.60;99.90
14093;DHT22;7123;49.468;10.992;2023-11-21T05:39:25;9.70;99.90
14093;DHT22;7123;49.468;10.992;2023-11-21T05:41:52;9.60;99.90
14093;DHT22;7123;49.468;10.992;2023-11-21T05:44:19;9.60;99.90
14093;DHT22;7123;49.468;10.992;2023-11-21T05:46:45;9.60;99.90
14093;DHT22;7123;49.468;10.992;2023-11-21T05:49:12;9.60;99.90
14093;DHT22;7123;49.468;10.992;2023-11-21T05:51:39;9.60;99.90
14093;DHT22;7123;49.468;10.992;2023-11-21T05:54:06;9.70;99.90
14093;DHT22;7123;49.468;10.992;2023-11-21T05:56:33;9.70;99.90
14093;DHT22;7123;49.468;10.992;2023-11-21T05:58:59;9.70;99.90
14093;DHT22;7123;49.468;10.992;2023-11-21T06:01:27;9.80;99.90
14093;DHT22;7123;49.468;10.992;2023-11-21T06:03:56;9.80;99.90
14093;DHT22;7123;49.468;10.992;2023-11-21T06:06:24;9.80;99.90
14093;DHT22;7123;49.468;10.992;2023-11-21T06:08:51;9.80;99.90
14093;DHT22;7123;49.468;10.992;2023-11-21T06:11:18;9.90;99.90
14093;DHT22;7123;49.468;10.992;2023-11-21T06:13:45;9.90;99.90
14093;DHT22;7123;49.468;10.992;2023-11-21T06:16:12;9.90;99.90
14093;DHT22;7123;49.468;10.992;2023-11-21T06:18:43;9.90;99.90
14093;DHT22;7123;49.468;10.992;2023-11-21T06:21:10;9.90;99.90
14093;DHT22;7123;49.468;10.992;2023-11-21T06:23:37;9.90;99.90
14093;DHT22;7123;49.468;10.992;2023-11-21T06:26:04;9.90;99.90
14093;DHT22;7123;49.468;10.992;2023-11-21T06:28:32;9.90;99.90
14093;DHT22;7123;49.468;10.992;2023-11-21T06:30:59;9.90;99.90
14093;DHT22;7123;49.468;10.992;2023-11-21T06:33:32;9.90;99.90
14093;DHT22;7123;49.468;10.992;2023-11-21T06:35:59;9.90;99.90
14093;DHT22;7123;49.468;10.992;2023-11-21T06:38:26;9.90;99.90
14093;DHT22;7123;49.468;10.992;2023-11-21T06:40:56;9.90;99.90
14093;DHT22;7123;49.468;10.992;2023-11-21T06:43:24;9.90;99.90
14093;DHT22;7123;49.468;10.992;2023-11-21T06:45:51;9.90;99.90
14093;DHT22;7123;49.468;10.992;2023-11-21T06:48:18;9.90;99.90
14093;DHT22;7123;49.468;10.992;2023-11-21T06:50:45;9.90;99.90
14093;DHT22;7123;49.468;10.992;2023-11-21T06:53:13;9.90;99.90
14093;DHT22;7123;49.468;10.992;2023-11-21T06:55:40;9.90;99.90
14093;DHT22;7123;49.468;10.992;2023-11-21T06:58:06;9.90;99.90
14093;DHT22;7123;49.468;10.992;2023-11-21T07:00:33;9.90;99.90
14093;DHT22;7123;49.468;10.992;2023-11-21T07:03:00;9.90;99.90
14093;DHT22;7123;49.468;10.992;2023-11-21T07:05:27;9.90;99.90
14093;DHT22;7123;49.468;10.992;2023-11-21T07:07:54;9.90;99.90
14093;DHT22;7123;49.468;10.992;2023-11-21T07:10:21;9.90;99.90
14093;DHT22;7123;49.468;10.992;2023-11-21T07:12:47;9.90;99.90
14093;DHT22;7123;49.468;10.992;2023-11-21T07:15:14;9.90;99.90
14093;DHT22;7123;49.468;10.992;2023-11-21T07:17:41;9.90;99.90
14093;DHT22;7123;49.468;10.992;2023-11-21T07:20:08;10.00;99.90
14093;DHT22;7123;49.468;10.992;2023-11-21T07:22:35;10.00;99.90
14093;DHT22;7123;49.468;10.992;2023-11-21T07:25:02;10.00;99.90
14093;DHT22;7123;49.468;10.992;2023-11-21T07:27:29;10.00;99.90
14093;DHT22;7123;49.468;10.992;2023-11-21T07:29:55;10.00;99.90
14093;DHT22;7123;49.468;10.992;2023-11-21T07:32:22;10.00;99.90
14093;DHT22;7123;49.468;10.992;2023-11-21T07:34:49;10.00;99.90
14093;DHT22;7123;49.468;10.992;2023-11-21T07:37:16;10.00;99.90
14093;DHT22;7123;49.468;10.992;2023-11-21T07:39:42;10.00;99.90
14093;DHT22;7123;49.468;10.992;2023-11-21T07:42:10;10.00;99.90
14093;DHT22;7123;49.468;10.992;2023-11-21T07:44:38;10.00;99.90
14093;DHT22;7123;49.468;10.992;2023-11-21T07:47:05;10.00;99.90
14093;DHT22;7123;49.468;10.992;2023-11-21T07:49:31;10.00;99.90
14093;DHT22;7123;49.468;10.992;2023-11-21T07:51:58;10.00;99.90
14093;DHT22;7123;49.468;10.992;2023-11-21T07:54:25;10.00;99.90
14093;DHT22;7123;49.468;10.992;2023-11-21T07:56:52;9.90;99.90
14093;DHT22;7123;49.468;10.992;2023-11-21T07:59:18;9.90;99.90
14093;DHT22;7123;49.468;10.992;2023-11-21T08:01:45;9.90;99.90
14093;DHT22;7123;49.468;10.992;2023-11-21T08:04:12;9.80;99.90
14093;DHT22;7123;49.468;10.992;2023-11-21T08:06:39;9.90;99.90
14093;DHT22;7123;49.468;10.992;2023-11-21T08:09:08;9.90;99.90
14093;DHT22;7123;49.468;10.992;2023-11-21T08:11:35;9.90;99.90
14093;DHT22;7123;49.468;10.992;2023-11-21T08:14:01;9.90;99.90
14093;DHT22;7123;49.468;10.992;2023-11-21T08:16:28;9.90;99.90
14093;DHT22;7123;49.468;10.992;2023-11-21T08:18:55;10.00;99.90
14093;DHT22;7123;49.468;10.992;2023-11-21T08:21:22;10.00;99.90
14093;DHT22;7123;49.468;10.992;2023-11-21T08:23:53;10.00;99.90
14093;DHT22;7123;49.468;10.992;2023-11-21T08:26:21;10.00;99.90
14093;DHT22;7123;49.468;10.992;2023-11-21T08:28:48;10.00;99.90
14093;DHT22;7123;49.468;10.992;2023-11-21T08:31:15;10.00;99.90
14093;DHT22;7123;49.468;10.992;2023-11-21T08:33:42;10.00;99.90
14093;DHT22;7123;49.468;10.992;2023-11-21T08:36:10;10.00;99.90
14093;DHT22;7123;49.468;10.992;2023-11-21T08:38:38;10.00;99.90
14093;DHT22;7123;49.468;10.992;2023-11-21T08:41:06;9.90;99.90
14093;DHT22;7123;49.468;10.992;2023-11-21T08:43:37;9.90;99.90
14093;DHT22;7123;49.468;10.992;2023-11-21T08:46:06;9.90;99.90
14093;DHT22;7123;49.468;10.992;2023-11-21T08:48:36;9.90;99.90
14093;DHT22;7123;49.468;10.992;2023-11-21T08:51:04;9.80;99.90
14093;DHT22;7123;49.468;10.992;2023-11-21T08:53:31;9.80;99.90
14093;DHT22;7123;49.468;10.992;2023-11-21T08:55:58;9.80;99.90
14093;DHT22;7123;49.468;10.992;2023-11-21T08:58:26;9.80;99.90
14093;DHT22;7123;49.468;10.992;2023-11-21T09:00:53;9.70;99.90
14093;DHT22;7123;49.468;10.992;2023-11-21T09:03:20;9.70;99.90
14093;DHT22;7123;49.468;10.992;2023-11-21T09:05:47;9.70;99.90
14093;DHT22;7123;49.468;10.992;2023-11-21T09:08:13;9.70;99.90
14093;DHT22;7123;49.468;10.992;2023-11-21T09:10:40;9.70;99.90
14093;DHT22;7123;49.468;10.992;2023-11-21T09:13:09;9.70;99.90
14093;DHT22;7123;49.468;10.992;2023-11-21T09:15:36;9.70;99.90
14093;DHT22;7123;49.468;10.992;2023-11-21T09:18:03;9.80;99.90
14093;DHT22;7123;49.468;10.992;2023-11-21T09:20:31;9.90;99.90
14093;DHT22;7123;49.468;10.992;2023-11-21T09:22:58;9.80;99.90
14093;DHT22;7123;49.468;10.992;2023-11-21T09:25:25;9.90;99.90
14093;DHT22;7123;49.468;10.992;2023-11-21T09:27:52;9.90;99.90
14093;DHT22;7123;49.468;10.992;2023-11-21T09:30:18;9.90;99.90
14093;DHT22;7123;49.468;10.992;2023-11-21T09:32:46;9.90;99.90
14093;DHT22;7123;49.468;10.992;2023-11-21T09:35:14;10.00;99.90
14093;DHT22;7123;49.468;10.992;2023-11-21T09:37:42;10.00;99.90
14093;DHT22;7123;49.468;10.992;2023-11-21T09:40:11;10.00;99.90
14093;DHT22;7123;49.468;10.992;2023-11-21T09:42:46;10.00;99.90
14093;DHT22;7123;49.468;10.992;2023-11-21T09:45:25;10.10;99.90
14093;DHT22;7123;49.468;10.992;2023-11-21T09:47:53;10.10;99.90
14093;DHT22;7123;49.468;10.992;2023-11-21T09:50:23;10.10;99.90
14093;DHT22;7123;49.468;10.992;2023-11-21T09:53:13;10.20;99.90
14093;DHT22;7123;49.468;10.992;2023-11-21T09:55:43;10.10;99.90
14093;DHT22;7123;49.468;10.992;2023-11-21T09:58:11;10.10;99.90
14093;DHT22;7123;49.468;10.992;2023-11-21T10:00:45;10.10;99.90
14093;DHT22;7123;49.468;10.992;2023-11-21T10:03:12;10.00;99.90
14093;DHT22;7123;49.468;10.992;2023-11-21T10:05:42;10.00;99.90
14093;DHT22;7123;49.468;10.992;2023-11-21T10:08:10;10.00;99.90
14093;DHT22;7123;49.468;10.992;2023-11-21T10:10:43;10.00;99.90
14093;DHT22;7123;49.468;10.992;2023-11-21T10:13:13;10.00;99.90
14093;DHT22;7123;49.468;10.992;2023-11-21T10:15:44;10.00;99.90
14093;DHT22;7123;49.468;10.992;2023-11-21T10:18:16;10.00;99.90
14093;DHT22;7123;49.468;10.992;2023-11-21T10:20:43;10.10;99.90
14093;DHT22;7123;49.468;10.992;2023-11-21T10:23:13;10.20;99.90
14093;DHT22;7123;49.468;10.992;2023-11-21T10:25:42;10.30;99.90
14093;DHT22;7123;49.468;10.992;2023-11-21T10:28:09;10.20;99.90
14093;DHT22;7123;49.468;10.992;2023-11-21T10:30:37;10.20;99.90
14093;DHT22;7123;49.468;10.992;2023-11-21T10:33:05;10.20;99.90
14093;DHT22;7123;49.468;10.992;2023-11-21T10:38:06;10.30;99.90
14093;DHT22;7123;49.468;10.992;2023-11-21T10:40:43;10.30;99.90
14093;DHT22;7123;49.468;10.992;2023-11-21T10:43:13;10.30;99.90
14093;DHT22;7123;49.468;10.992;2023-11-21T10:45:42;10.40;99.90
14093;DHT22;7123;49.468;10.992;2023-11-21T10:48:12;10.40;99.90
14093;DHT22;7123;49.468;10.992;2023-11-21T10:50:42;10.50;99.90
14093;DHT22;7123;49.468;10.992;2023-11-21T10:53:09;10.50;99.90
14093;DHT22;7123;49.468;10.992;2023-11-21T10:55:38;10.50;99.90
14093;DHT22;7123;49.468;10.992;2023-11-21T10:58:05;10.50;99.90
14093;DHT22;7123;49.468;10.992;2023-11-21T11:00:33;10.50;99.90
14093;DHT22;7123;49.468;10.992;2023-11-21T11:03:00;10.50;99.90
14093;DHT22;7123;49.468;10.992;2023-11-21T11:05:29;10.60;99.90
14093;DHT22;7123;49.468;10.992;2023-11-21T11:08:02;10.50;99.90
14093;DHT22;7123;49.468;10.992;2023-11-21T11:10:31;10.50;99.90
14093;DHT22;7123;49.468;10.992;2023-11-21T11:12:58;10.50;99.90
14093;DHT22;7123;49.468;10.992;2023-11-21T11:15:26;10.50;99.90
14093;DHT22;7123;49.468;10.992;2023-11-21T11:17:54;10.40;99.90
14093;DHT22;7123;49.468;10.992;2023-11-21T11:20:33;10.30;99.90
14093;DHT22;7123;49.468;10.992;2023-11-21T11:26:01;10.30;99.90
14093;DHT22;7123;49.468;10.992;2023-11-21T11:28:42;10.30;99.90
14093;DHT22;7123;49.468;10.992;2023-11-21T11:31:33;10.20;99.90
14093;DHT22;7123;49.468;10.992;2023-11-21T11:34:32;10.20;99.90
14093;DHT22;7123;49.468;10.992;2023-11-21T11:37:06;10.20;99.90
14093;DHT22;7123;49.468;10.992;2023-11-21T11:39:40;10.20;99.90
14093;DHT22;7123;49.468;10.992;2023-11-21T11:42:15;10.20;99.90
14093;DHT22;7123;49.468;10.992;2023-11-21T11:47:27;10.20;99.90
14093;DHT22;7123;49.468;10.992;2023-11-21T11:50:07;10.20;99.90
14093;DHT22;7123;49.468;10.992;2023-11-21T11:52:45;10.20;99.90
14093;DHT22;7123;49.468;10.992;2023-11-21T11:55:14;10.30;99.90
14093;DHT22;7123;49.468;10.992;2023-11-21T11:57:42;10.30;99.90
14093;DHT22;7123;49.468;10.992;2023-11-21T12:02:56;10.30;99.90
14093;DHT22;7123;49.468;10.992;2023-11-21T12:05:30;10.30;99.90
14093;DHT22;7123;49.468;10.992;2023-11-21T12:08:04;10.20;99.90
14093;DHT22;7123;49.468;10.992;2023-11-21T12:10:36;10.20;99.90
14093;DHT22;7123;49.468;10.992;2023-11-21T12:13:07;10.20;99.90
14093;DHT22;7123;49.468;10.992;2023-11-21T12:15:39;10.10;99.90
14093;DHT22;7123;49.468;10.992;2023-11-21T12:18:07;10.10;99.90
14093;DHT22;7123;49.468;10.992;2023-11-21T12:20:34;10.10;99.90
14093;DHT22;7123;49.468;10.992;2023-11-21T12:23:08;10.10;99.90
14093;DHT22;7123;49.468;10.992;2023-11-21T12:25:38;10.10;99.90
14093;DHT22;7123;49.468;10.992;2023-11-21T12:28:09;10.00;99.90
14093;DHT22;7123;49.468;10.992;2023-11-21T12:30:36;10.00;99.90
14093;DHT22;7123;49.468;10.992;2023-11-21T12:33:05;10.00;99.90
14093;DHT22;7123;49.468;10.992;2023-11-21T12:35:34;10.00;99.90
14093;DHT22;7123;49.468;10.992;2023-11-21T12:38:03;9.90;99.90
14093;DHT22;7123;49.468;10.992;2023-11-21T12:40:30;9.90;99.90
14093;DHT22;7123;49.468;10.992;2023-11-21T12:42:59;10.00;99.90
14093;DHT22;7123;49.468;10.992;2023-11-21T12:45:29;10.00;99.90
14093;DHT22;7123;49.468;10.992;2023-11-21T12:47:56;10.00;99.90
14093;DHT22;7123;49.468;10.992;2023-11-21T12:50:27;10.00;99.90
14093;DHT22;7123;49.468;10.992;2023-11-21T12:53:00;10.00;99.90
14093;DHT22;7123;49.468;10.992;2023-11-21T12:55:33;10.00;99.90
14093;DHT22;7123;49.468;10.992;2023-11-21T12:58:05;10.00;99.90
14093;DHT22;7123;49.468;10.992;2023-11-21T13:00:39;10.00;99.90
14093;DHT22;7123;49.468;10.992;2023-11-21T13:03:09;9.90;99.90
14093;DHT22;7123;49.468;10.992;2023-11-21T13:05:40;9.90;99.90
14093;DHT22;7123;49.468;10.992;2023-11-21T13:08:14;9.90;99.90
14093;DHT22;7123;49.468;10.992;2023-11-21T13:10:46;10.00;99.90
14093;DHT22;7123;49.468;10.992;2023-11-21T13:13:15;10.00;99.90
14093;DHT22;7123;49.468;10.992;2023-11-21T13:15:55;10.10;99.90
14093;DHT22;7123;49.468;10.992;2023-11-21T13:18:28;10.10;99.90
14093;DHT22;7123;49.468;10.992;2023-11-21T13:21:01;10.10;99.90
14093;DHT22;7123;49.468;10.992;2023-11-21T13:23:34;10.20;99.90
14093;DHT22;7123;49.468;10.992;2023-11-21T13:26:03;10.20;99.90
14093;DHT22;7123;49.468;10.992;2023-11-21T13:28:33;10.30;99.90
14093;DHT22;7123;49.468;10.992;2023-11-21T13:31:02;10.20;99.90
14093;DHT22;7123;49.468;10.992;2023-11-21T13:33:58;10.20;99.90
14093;DHT22;7123;49.468;10.992;2023-11-21T13:36:31;10.10;99.90
14093;DHT22;7123;49.468;10.992;2023-11-21T13:39:02;10.00;99.90
14093;DHT22;7123;49.468;10.992;2023-11-21T13:41:34;9.90;99.90
14093;DHT22;7123;49.468;10.992;2023-11-21T13:44:01;9.90;99.90
14093;DHT22;7123;49.468;10.992;2023-11-21T13:46:53;10.00;99.90
14093;DHT22;7123;49.468;10.992;2023-11-21T13:49:20;10.10;99.90
14093;DHT22;7123;49.468;10.992;2023-11-21T13:51:48;10.10;99.90
14093;DHT22;7123;49.468;10.992;2023-11-21T13:54:18;10.30;99.90
14093;DHT22;7123;49.468;10.992;2023-11-21T13:56:46;10.40;99.90
14093;DHT22;7123;49.468;10.992;2023-11-21T13:59:13;10.60;99.90
14093;DHT22;7123;49.468;10.992;2023-11-21T14:01:48;10.70;99.90
14093;DHT22;7123;49.468;10.992;2023-11-21T14:04:24;10.90;99.90
14093;DHT22;7123;49.468;10.992;2023-11-21T14:07:05;11.00;99.90
14093;DHT22;7123;49.468;10.992;2023-11-21T14:09:53;11.10;99.90
14093;DHT22;7123;49.468;10.992;2023-11-21T14:12:20;11.40;99.90
14093;DHT22;7123;49.468;10.992;2023-11-21T14:14:46;11.30;99.90
14093;DHT22;7123;49.468;10.992;2023-11-21T14:17:14;11.40;99.90
14093;DHT22;7123;49.468;10.992;2023-11-21T14:19:41;11.40;99.90
14093;DHT22;7123;49.468;10.992;2023-11-21T14:22:11;11.30;99.90
14093;DHT22;7123;49.468;10.992;2023-11-21T14:24:37;11.20;99.90
14093;DHT22;7123;49.468;10.992;2023-11-21T14:27:10;11.00;99.90
14093;DHT22;7123;49.468;10.992;2023-11-21T14:29:37;10.80;99.90
14093;DHT22;7123;49.468;10.992;2023-11-21T14:32:07;10.70;99.90
14093;DHT22;7123;49.468;10.992;2023-11-21T14:34:34;10.60;99.90
14093;DHT22;7123;49.468;10.992;2023-11-21T14:37:01;10.50;99.90
14093;DHT22;7123;49.468;10.992;2023-11-21T14:39:29;10.50;99.90
14093;DHT22;7123;49.468;10.992;2023-11-21T14:41:57;10.50;99.90
14093;DHT22;7123;49.468;10.992;2023-11-21T14:44:25;10.60;99.90
14093;DHT22;7123;49.468;10.992;2023-11-21T14:46:54;10.50;99.90
14093;DHT22;7123;49.468;10.992;2023-11-21T14:49:24;10.50;99.90
14093;DHT22;7123;49.468;10.992;2023-11-21T14:51:54;10.60;99.90
14093;DHT22;7123;49.468;10.992;2023-11-21T14:54:33;10.60;99.90
14093;DHT22;7123;49.468;10.992;2023-11-21T14:57:13;10.60;99.90
14093;DHT22;7123;49.468;10.992;2023-11-21T14:59:48;10.60;99.90
14093;DHT22;7123;49.468;10.992;2023-11-21T15:02:19;10.70;99.90
14093;DHT22;7123;49.468;10.992;2023-11-21T15:05:10;10.60;99.90
14093;DHT22;7123;49.468;10.992;2023-11-21T15:07:43;10.70;99.90
14093;DHT22;7123;49.468;10.992;2023-11-21T15:10:12;10.60;99.90
14093;DHT22;7123;49.468;10.992;2023-11-21T15:12:42;10.60;99.90
14093;DHT22;7123;49.468;10.992;2023-11-21T15:15:11;10.60;99.90
14093;DHT22;7123;49.468;10.992;2023-11-21T15:17:40;10.60;99.90
14093;DHT22;7123;49.468;10.992;2023-11-21T15:20:10;10.50;99.90
14093;DHT22;7123;49.468;10.992;2023-11-21T15:22:39;10.50;99.90
14093;DHT22;7123;49.468;10.992;2023-11-21T15:25:06;10.50;99.90
14093;DHT22;7123;49.468;10.992;2023-11-21T15:27:36;10.50;99.90
14093;DHT22;7123;49.468;10.992;2023-11-21T15:30:03;10.50;99.90
14093;DHT22;7123;49.468;10.992;2023-11-21T15:32:31;10.50;99.90
14093;DHT22;7123;49.468;10.992;2023-11-21T15:34:58;10.50;99.90
14093;DHT22;7123;49.468;10.992;2023-11-21T15:37:24;10.50;99.90
14093;DHT22;7123;49.468;10.992;2023-11-21T15:39:54;10.40;99.90
14093;DHT22;7123;49.468;10.992;2023-11-21T15:42:21;10.40;99.90
14093;DHT22;7123;49.468;10.992;2023-11-21T15:44:48;10.40;99.90
14093;DHT22;7123;49.468;10.992;2023-11-21T15:47:16;10.40;99.90
14093;DHT22;7123;49.468;10.992;2023-11-21T15:49:43;10.40;99.90
14093;DHT22;7123;49.468;10.992;2023-11-21T15:52:15;10.40;99.90
14093;DHT22;7123;49.468;10.992;2023-11-21T15:54:42;10.30;99.90
14093;DHT22;7123;49.468;10.992;2023-11-21T15:57:12;10.20;99.90
14093;DHT22;7123;49.468;10.992;2023-11-21T15:59:40;10.20;99.90
14093;DHT22;7123;49.468;10.992;2023-11-21T16:02:08;10.20;99.90